Time;durP1;ratioP1;P1;durP2;ratioP2;P2;SDS_P1;SDS_P2;PMS_P1;PMS_P2;Temp;Humidity;BMP_temperature;BMP_pressure;BME280_temperature;BME280_humidity;BME280_pressure;Samples;Min_cycle;Max_cycle;Signal;HPM_P1;HPM_P2
2023/12/14 00:01:10;;;;;;;45.75;21.73;;;7.80;99.90;;;;;;7341071;32;20632;-57
2023/12/14 00:05:11;;;;;;;41.65;22.55;;;7.70;99.90;;;;;;7342957;32;20100;-57
2023/12/14 00:09:13;;;;;;;42.15;22.15;;;7.70;99.90;;;;;;7343864;32;20111;-57
2023/12/14 00:13:15;;;;;;;43.75;22.08;;;7.70;99.90;;;;;;7337917;32;20366;-56
2023/12/14 00:17:17;;;;;;;43.85;22.62;;;7.70;99.90;;;;;;7345570;32;20155;-55
2023/12/14 00:21:18;;;;;;;51.15;25.12;;;7.80;99.90;;;;;;7345643;32;20274;-55
2023/12/14 00:25:20;;;;;;;44.00;24.08;;;7.70;99.90;;;;;;7343977;32;20221;-58
2023/12/14 00:29:22;;;;;;;48.95;23.77;;;7.80;99.90;;;;;;7344389;32;20117;-57
2023/12/14 00:33:23;;;;;;;44.92;24.55;;;7.90;99.90;;;;;;7341811;32;20119;-57
2023/12/14 00:37:25;;;;;;;43.63;24.05;;;7.70;99.90;;;;;;7340799;32;20115;-57
2023/12/14 00:41:27;;;;;;;42.65;22.75;;;7.70;99.90;;;;;;7345439;32;20387;-57
2023/12/14 00:45:29;;;;;;;46.33;22.98;;;7.70;99.90;;;;;;7341180;32;20110;-57
2023/12/14 00:49:30;;;;;;;44.65;22.95;;;7.50;99.90;;;;;;7346241;32;20129;-57
2023/12/14 00:53:32;;;;;;;42.83;21.10;;;7.40;99.90;;;;;;7341206;32;20096;-57
2023/12/14 00:57:34;;;;;;;36.78;18.92;;;7.50;99.90;;;;;;7343341;32;20182;-57
2023/12/14 01:01:36;;;;;;;37.65;19.70;;;7.40;99.90;;;;;;7346033;32;20219;-57
2023/12/14 01:05:37;;;;;;;37.05;19.90;;;7.40;99.90;;;;;;7343255;32;20226;-56
2023/12/14 01:09:39;;;;;;;33.72;18.35;;;7.40;99.90;;;;;;7343628;32;20092;-57
2023/12/14 01:13:41;;;;;;;38.25;19.67;;;7.50;99.90;;;;;;7345187;32;20190;-57
2023/12/14 01:17:43;;;;;;;33.03;17.58;;;7.40;99.90;;;;;;7340496;32;20103;-58
2023/12/14 01:21:45;;;;;;;31.35;17.15;;;7.40;99.90;;;;;;7344983;32;20125;-57
2023/12/14 01:25:46;;;;;;;32.55;19.05;;;7.40;99.90;;;;;;7342400;32;20180;-55
2023/12/14 01:29:48;;;;;;;31.50;16.92;;;7.30;99.90;;;;;;7343481;32;20134;-55
2023/12/14 01:33:51;;;;;;;34.80;18.17;;;7.30;99.90;;;;;;7343308;32;20636;-58
2023/12/14 01:37:53;;;;;;;40.60;17.80;;;7.30;99.90;;;;;;7345198;32;20145;-57
2023/12/14 01:41:54;;;;;;;34.63;18.08;;;7.40;99.90;;;;;;7344813;32;20100;-58
2023/12/14 01:45:56;;;;;;;30.70;17.40;;;7.40;99.90;;;;;;7343237;32;20137;-57
2023/12/14 01:49:58;;;;;;;31.40;17.37;;;7.30;99.90;;;;;;7341843;32;20193;-57
2023/12/14 01:54:00;;;;;;;25.67;15.93;;;7.30;99.90;;;;;;7347222;32;20194;-58
2023/12/14 01:58:02;;;;;;;22.80;15.70;;;7.10;99.90;;;;;;7342478;32;20161;-57
2023/12/14 02:02:05;;;;;;;26.67;15.48;;;7.00;99.90;;;;;;7346530;32;20522;-57
2023/12/14 02:06:07;;;;;;;24.20;15.70;;;7.00;99.90;;;;;;7342012;32;20124;-57
2023/12/14 02:10:09;;;;;;;24.45;16.40;;;7.00;99.90;;;;;;7352456;32;20218;-56
2023/12/14 02:14:11;;;;;;;23.30;13.88;;;6.90;99.90;;;;;;7351246;32;20430;-58
2023/12/14 02:18:13;;;;;;;21.05;14.25;;;6.90;99.90;;;;;;7348479;32;20099;-57
2023/12/14 02:22:17;;;;;;;24.12;14.25;;;6.90;99.90;;;;;;7346544;32;20174;-58
2023/12/14 02:26:19;;;;;;;22.05;14.43;;;6.90;99.90;;;;;;7348464;32;20253;-57
2023/12/14 02:30:20;;;;;;;21.10;13.52;;;6.90;99.90;;;;;;7347326;32;20103;-58
2023/12/14 02:34:24;;;;;;;17.67;11.75;;;6.80;99.90;;;;;;7347343;32;20126;-57
2023/12/14 02:38:26;;;;;;;16.05;10.90;;;6.90;99.90;;;;;;7352298;32;20104;-57
2023/12/14 02:42:28;;;;;;;15.20;10.52;;;6.80;99.90;;;;;;7347199;32;20189;-57
2023/12/14 02:46:30;;;;;;;16.92;11.90;;;6.90;99.90;;;;;;7346580;32;20337;-56
2023/12/14 02:50:31;;;;;;;24.98;14.13;;;6.90;99.90;;;;;;7350078;32;20171;-56
2023/12/14 02:54:33;;;;;;;27.02;16.80;;;6.90;99.90;;;;;;7348637;32;20138;-58
2023/12/14 02:58:35;;;;;;;26.75;17.62;;;6.80;99.90;;;;;;7351078;32;20166;-56
2023/12/14 03:02:37;;;;;;;25.55;16.87;;;6.80;99.90;;;;;;7347416;32;20202;-57
2023/12/14 03:06:39;;;;;;;26.40;17.05;;;6.80;99.90;;;;;;7348679;32;20092;-56
2023/12/14 03:10:41;;;;;;;24.67;16.05;;;6.70;99.90;;;;;;7352493;32;20218;-57
2023/12/14 03:14:42;;;;;;;25.52;15.98;;;6.70;99.90;;;;;;7343782;32;20449;-57
2023/12/14 03:18:45;;;;;;;26.98;16.12;;;6.60;99.90;;;;;;7338001;32;20096;-58
2023/12/14 03:22:46;;;;;;;26.90;16.08;;;6.60;99.90;;;;;;7349171;32;20121;-57
2023/12/14 03:26:48;;;;;;;21.37;14.95;;;6.50;99.90;;;;;;7346888;32;20135;-57
2023/12/14 03:30:50;;;;;;;23.58;14.50;;;6.60;99.90;;;;;;7346925;32;20544;-56
2023/12/14 03:34:51;;;;;;;26.33;15.95;;;6.40;99.90;;;;;;7346694;32;20540;-57
2023/12/14 03:38:53;;;;;;;24.60;15.82;;;6.50;99.90;;;;;;7344181;32;20305;-57
2023/12/14 03:42:55;;;;;;;28.33;16.60;;;6.50;99.90;;;;;;7342445;32;20140;-56
2023/12/14 03:46:57;;;;;;;28.60;17.23;;;6.50;99.90;;;;;;7342394;32;20182;-58
2023/12/14 03:51:03;;;;;;;31.70;17.58;;;6.60;99.90;;;;;;7343060;32;20210;-58
2023/12/14 03:55:05;;;;;;;26.12;16.27;;;6.40;99.90;;;;;;7346299;32;20119;-57
2023/12/14 03:59:07;;;;;;;27.95;16.67;;;6.40;99.90;;;;;;7346960;32;20479;-57
2023/12/14 04:03:09;;;;;;;29.85;17.52;;;6.50;99.90;;;;;;7342381;32;20421;-57
2023/12/14 04:07:11;;;;;;;28.55;17.08;;;6.40;99.90;;;;;;7343735;32;20208;-57
2023/12/14 04:11:13;;;;;;;30.05;17.25;;;6.40;99.90;;;;;;7350290;32;20164;-57
2023/12/14 04:15:14;;;;;;;27.45;16.70;;;6.30;99.90;;;;;;7345845;32;20152;-57
2023/12/14 04:19:16;;;;;;;28.60;15.88;;;6.20;99.90;;;;;;7344372;32;20131;-56
2023/12/14 04:23:18;;;;;;;28.05;14.82;;;6.20;99.90;;;;;;7347450;32;20198;-56
2023/12/14 04:27:21;;;;;;;28.38;14.45;;;6.10;99.90;;;;;;7341305;32;20883;-58
2023/12/14 04:31:22;;;;;;;27.08;14.05;;;6.10;99.90;;;;;;7351028;32;20182;-57
2023/12/14 04:35:24;;;;;;;24.65;14.13;;;6.10;99.90;;;;;;7348858;32;20201;-57
2023/12/14 04:39:26;;;;;;;31.70;14.73;;;6.10;99.90;;;;;;7345719;32;20762;-57
2023/12/14 04:43:30;;;;;;;28.05;14.30;;;6.10;99.90;;;;;;7348075;32;20264;-56
2023/12/14 04:47:32;;;;;;;28.40;15.85;;;6.00;99.90;;;;;;7344793;32;20249;-57
2023/12/14 04:51:34;;;;;;;27.50;15.52;;;6.10;99.90;;;;;;7345617;32;20245;-58
2023/12/14 04:55:35;;;;;;;28.65;15.70;;;6.00;99.90;;;;;;7344946;32;20530;-57
2023/12/14 04:59:40;;;;;;;26.17;14.63;;;6.00;99.90;;;;;;7342976;32;20638;-58
2023/12/14 05:03:42;;;;;;;24.70;13.25;;;6.00;99.90;;;;;;7340650;32;20202;-58
2023/12/14 05:07:44;;;;;;;25.12;13.43;;;6.10;99.90;;;;;;7348916;32;20254;-56
2023/12/14 05:11:46;;;;;;;24.70;12.68;;;6.00;99.90;;;;;;7348767;32;20095;-57
2023/12/14 05:15:47;;;;;;;24.05;13.02;;;6.00;99.90;;;;;;7341845;32;20388;-57
2023/12/14 05:19:49;;;;;;;22.27;13.32;;;6.00;99.90;;;;;;7342822;32;20104;-56
2023/12/14 05:23:51;;;;;;;25.02;13.55;;;5.90;99.90;;;;;;7348705;32;20199;-57
2023/12/14 05:27:53;;;;;;;23.60;13.23;;;6.00;99.90;;;;;;7340641;32;20100;-57
2023/12/14 05:31:55;;;;;;;25.42;13.60;;;6.00;99.90;;;;;;7344076;32;20112;-57
2023/12/14 05:35:57;;;;;;;25.92;13.68;;;6.00;99.90;;;;;;7343512;32;20107;-57
2023/12/14 05:39:58;;;;;;;25.58;13.82;;;6.10;99.90;;;;;;7351310;32;20307;-57
2023/12/14 05:44:00;;;;;;;23.62;14.00;;;6.10;99.90;;;;;;7351366;32;20119;-58
2023/12/14 05:48:05;;;;;;;25.88;14.77;;;6.10;99.90;;;;;;7352829;32;20107;-57
2023/12/14 05:52:07;;;;;;;25.02;14.98;;;6.10;99.90;;;;;;7351285;32;20449;-56
2023/12/14 05:56:09;;;;;;;23.83;13.62;;;6.00;99.90;;;;;;7348053;32;20249;-56
2023/12/14 06:00:11;;;;;;;25.00;14.45;;;6.00;99.90;;;;;;7347449;32;20240;-56
2023/12/14 06:04:13;;;;;;;25.45;14.43;;;5.90;99.90;;;;;;7347544;32;20221;-56
2023/12/14 06:08:15;;;;;;;24.05;14.05;;;6.10;99.90;;;;;;7344797;32;20107;-57
2023/12/14 06:12:16;;;;;;;26.92;14.05;;;6.00;99.90;;;;;;7347908;32;20099;-56
2023/12/14 06:16:18;;;;;;;25.85;14.05;;;6.10;99.90;;;;;;7340590;32;20572;-56
2023/12/14 06:20:20;;;;;;;29.00;15.07;;;6.00;99.90;;;;;;7345795;32;20525;-56
2023/12/14 06:24:22;;;;;;;27.00;14.63;;;6.00;99.90;;;;;;7350497;32;20107;-56
2023/12/14 06:28:24;;;;;;;25.20;14.63;;;6.00;99.90;;;;;;7349227;32;20153;-56
2023/12/14 06:32:25;;;;;;;28.73;15.35;;;6.00;99.90;;;;;;7345401;32;20168;-56
2023/12/14 06:36:29;;;;;;;25.20;14.23;;;6.00;99.90;;;;;;7349961;32;20256;-56
2023/12/14 06:40:31;;;;;;;25.33;14.35;;;6.10;99.90;;;;;;7345563;32;20140;-57
2023/12/14 06:44:33;;;;;;;26.17;14.95;;;6.00;99.90;;;;;;7348263;32;20160;-56
2023/12/14 06:48:36;;;;;;;24.70;14.23;;;5.90;99.90;;;;;;7337774;32;20670;-56
2023/12/14 06:52:38;;;;;;;33.25;15.43;;;5.80;99.90;;;;;;7338170;32;20194;-55
2023/12/14 06:56:40;;;;;;;29.55;15.88;;;5.90;99.90;;;;;;7345411;32;20145;-56
2023/12/14 07:00:42;;;;;;;28.12;15.52;;;5.90;99.90;;;;;;7347475;32;20574;-57
2023/12/14 07:04:44;;;;;;;30.10;16.67;;;5.90;99.90;;;;;;7344391;32;20103;-57
2023/12/14 07:08:47;;;;;;;32.35;16.20;;;5.80;99.90;;;;;;7347858;32;20095;-57
2023/12/14 07:12:49;;;;;;;32.28;14.80;;;5.80;99.90;;;;;;7347203;32;20626;-56
2023/12/14 07:16:50;;;;;;;27.40;14.10;;;5.70;99.90;;;;;;7340659;32;20600;-57
2023/12/14 07:20:52;;;;;;;32.30;14.38;;;5.70;99.90;;;;;;7348679;32;20123;-56
2023/12/14 07:24:54;;;;;;;28.30;15.23;;;5.60;99.90;;;;;;7346042;32;20263;-56
2023/12/14 07:29:01;;;;;;;31.30;16.60;;;5.80;99.90;;;;;;7349443;32;20111;-57
2023/12/14 07:33:02;;;;;;;26.48;15.48;;;5.80;99.90;;;;;;7353768;32;20155;-57
2023/12/14 07:37:06;;;;;;;31.77;16.30;;;5.80;99.90;;;;;;7343712;32;20107;-56
2023/12/14 07:41:08;;;;;;;34.70;17.65;;;5.70;99.90;;;;;;7348535;32;20198;-56
2023/12/14 07:45:10;;;;;;;36.25;18.98;;;5.80;99.90;;;;;;7333260;32;20290;-57
2023/12/14 07:49:12;;;;;;;37.22;18.92;;;5.60;99.90;;;;;;7337854;32;20258;-56
2023/12/14 07:53:13;;;;;;;36.55;19.00;;;5.60;99.90;;;;;;7332160;32;20144;-56
2023/12/14 07:57:15;;;;;;;42.13;20.50;;;5.60;99.90;;;;;;7329353;32;20194;-55
2023/12/14 08:01:17;;;;;;;33.67;18.67;;;5.40;99.90;;;;;;7337591;32;20278;-56
2023/12/14 08:05:19;;;;;;;37.65;18.62;;;5.50;99.90;;;;;;7335247;32;20187;-55
2023/12/14 08:09:21;;;;;;;38.35;20.05;;;5.50;99.90;;;;;;7336909;32;20210;-56
2023/12/14 08:13:22;;;;;;;36.67;19.30;;;5.50;99.90;;;;;;7334966;32;20202;-56
2023/12/14 08:17:24;;;;;;;38.28;19.58;;;5.50;99.90;;;;;;7329382;32;20743;-56
2023/12/14 08:21:26;;;;;;;37.53;19.33;;;5.50;99.90;;;;;;7334757;32;20198;-56
2023/12/14 08:25:28;;;;;;;38.25;20.37;;;5.60;99.90;;;;;;7340657;32;20303;-55
2023/12/14 08:29:30;;;;;;;34.70;19.58;;;5.70;99.90;;;;;;7345961;32;20253;-56
2023/12/14 08:33:32;;;;;;;36.30;19.45;;;5.70;99.90;;;;;;7345738;32;20229;-56
2023/12/14 08:37:35;;;;;;;35.53;18.62;;;5.60;99.90;;;;;;7339835;32;20761;-56
2023/12/14 08:41:37;;;;;;;37.35;21.87;;;5.70;99.90;;;;;;7341910;32;20229;-56
2023/12/14 08:45:39;;;;;;;36.92;20.27;;;5.70;99.90;;;;;;7341005;32;20214;-56
2023/12/14 08:49:40;;;;;;;38.38;21.25;;;5.60;99.90;;;;;;7340136;32;20239;-56
2023/12/14 08:53:43;;;;;;;46.00;21.83;;;5.70;99.90;;;;;;7339009;32;20265;-56
2023/12/14 08:57:44;;;;;;;42.35;22.48;;;5.70;99.90;;;;;;7336002;32;20313;-56
2023/12/14 09:01:46;;;;;;;44.75;22.08;;;5.60;99.90;;;;;;7331596;32;20187;-56
2023/12/14 09:05:48;;;;;;;44.50;22.42;;;5.50;99.90;;;;;;7330472;32;20246;-56
2023/12/14 09:09:50;;;;;;;44.80;22.23;;;5.60;99.90;;;;;;7328901;32;20249;-58
2023/12/14 09:13:52;;;;;;;40.80;21.80;;;5.50;99.90;;;;;;7333459;32;20248;-56
2023/12/14 09:17:54;;;;;;;40.97;20.67;;;5.60;99.90;;;;;;7325843;32;20213;-56
2023/12/14 09:21:57;;;;;;;44.20;23.08;;;5.60;99.90;;;;;;7339368;32;20407;-56
2023/12/14 09:25:59;;;;;;;41.25;22.02;;;5.60;99.90;;;;;;7342268;32;20258;-56
2023/12/14 09:30:01;;;;;;;37.53;20.42;;;5.50;99.90;;;;;;7349842;32;20118;-56
2023/12/14 09:34:04;;;;;;;38.35;20.62;;;5.50;99.90;;;;;;7345475;32;20131;-56
2023/12/14 09:38:07;;;;;;;39.40;20.70;;;5.60;99.90;;;;;;7347791;32;20238;-57
2023/12/14 09:42:09;;;;;;;41.67;20.77;;;5.60;99.90;;;;;;7351174;32;20817;-57
2023/12/14 09:46:12;;;;;;;36.03;20.42;;;5.60;99.90;;;;;;7348141;32;20107;-57
2023/12/14 09:50:16;;;;;;;36.72;19.42;;;5.70;99.90;;;;;;7351139;32;20103;-57
2023/12/14 09:54:18;;;;;;;31.85;18.77;;;5.70;99.90;;;;;;7345543;32;20616;-57
2023/12/14 09:58:20;;;;;;;35.25;19.85;;;5.70;99.90;;;;;;7337834;32;20449;-57
2023/12/14 10:02:28;;;;;;;32.60;18.45;;;5.60;99.90;;;;;;7332242;32;20265;-57
2023/12/14 10:06:30;;;;;;;32.25;19.00;;;5.60;99.90;;;;;;7330241;32;20183;-56
2023/12/14 10:10:31;;;;;;;33.50;20.10;;;5.60;99.90;;;;;;7336543;32;20210;-56
2023/12/14 10:14:34;;;;;;;35.20;18.73;;;5.70;99.90;;;;;;7342361;32;20214;-54
2023/12/14 10:18:36;;;;;;;31.42;18.23;;;5.70;99.90;;;;;;7341160;32;20209;-56
2023/12/14 10:22:38;;;;;;;32.67;18.40;;;5.90;99.90;;;;;;7336937;32;20906;-55
2023/12/14 10:26:40;;;;;;;29.33;17.40;;;5.70;99.90;;;;;;7333794;32;20195;-56
2023/12/14 10:30:42;;;;;;;30.45;16.37;;;5.60;99.90;;;;;;7340180;32;20366;-56
2023/12/14 10:34:44;;;;;;;30.80;17.12;;;5.70;99.90;;;;;;7329301;32;20198;-56
2023/12/14 10:38:48;;;;;;;27.30;16.42;;;5.70;99.90;;;;;;7332207;32;20847;-56
2023/12/14 10:42:51;;;;;;;30.83;17.15;;;5.80;99.90;;;;;;7334919;32;20568;-57
2023/12/14 10:46:56;;;;;;;30.05;17.42;;;5.90;99.90;;;;;;7330295;32;20273;-57
2023/12/14 10:51:01;;;;;;;30.67;17.50;;;5.80;99.90;;;;;;7337450;32;21059;-57
2023/12/14 10:55:08;;;;;;;30.98;17.70;;;5.70;99.90;;;;;;7340856;32;20255;-57
2023/12/14 10:59:14;;;;;;;32.25;17.60;;;6.00;99.90;;;;;;7337617;32;20187;-56
2023/12/14 11:03:17;;;;;;;26.65;15.60;;;6.00;99.90;;;;;;7339347;32;20151;-56
2023/12/14 11:07:19;;;;;;;25.35;14.48;;;6.00;99.90;;;;;;7333252;32;20283;-56
2023/12/14 11:11:21;;;;;;;25.67;14.65;;;5.90;99.90;;;;;;7332105;32;21027;-56
2023/12/14 11:15:23;;;;;;;25.83;14.60;;;5.80;99.90;;;;;;7335988;32;20096;-56
2023/12/14 11:19:28;;;;;;;26.15;13.90;;;5.80;99.90;;;;;;7332382;32;21028;-56
2023/12/14 11:23:36;;;;;;;22.83;14.38;;;5.90;99.90;;;;;;7331570;32;20279;-56
2023/12/14 11:27:43;;;;;;;20.58;13.23;;;5.80;99.90;;;;;;7333701;32;20208;-56
2023/12/14 11:31:45;;;;;;;23.23;14.15;;;5.80;99.90;;;;;;7336437;32;21493;-56
2023/12/14 11:35:47;;;;;;;24.08;15.05;;;5.80;99.90;;;;;;7331281;32;20178;-56
2023/12/14 11:39:50;;;;;;;21.33;13.48;;;6.00;99.90;;;;;;7328821;32;20205;-56
2023/12/14 11:43:52;;;;;;;25.05;14.27;;;5.90;99.90;;;;;;7335041;32;20606;-56
2023/12/14 11:47:54;;;;;;;23.25;13.93;;;5.90;99.90;;;;;;7338122;32;20183;-56
2023/12/14 11:51:56;;;;;;;21.00;13.10;;;5.90;99.90;;;;;;7332598;32;20285;-56
2023/12/14 11:56:02;;;;;;;20.98;12.35;;;5.80;99.90;;;;;;7334726;32;20224;-56
2023/12/14 12:00:06;;;;;;;23.67;12.80;;;5.80;99.90;;;;;;7328581;32;20254;-56
2023/12/14 12:04:10;;;;;;;23.05;12.73;;;5.70;99.90;;;;;;7333752;32;20193;-56
2023/12/14 12:08:13;;;;;;;19.00;12.23;;;5.90;99.90;;;;;;7334476;32;21477;-56
2023/12/14 12:12:15;;;;;;;22.10;12.23;;;5.80;99.90;;;;;;7334699;32;20513;-56
2023/12/14 12:16:16;;;;;;;19.27;12.75;;;5.90;99.90;;;;;;7328926;32;20626;-56
2023/12/14 12:20:18;;;;;;;18.67;12.35;;;5.90;99.90;;;;;;7327265;32;20207;-56
2023/12/14 12:24:20;;;;;;;22.10;11.88;;;5.80;99.90;;;;;;7332096;32;20234;-56
2023/12/14 12:28:31;;;;;;;21.90;11.63;;;5.80;99.90;;;;;;7332654;32;20281;-56
2023/12/14 12:32:32;;;;;;;17.37;11.10;;;5.80;99.90;;;;;;7330809;32;20191;-56
2023/12/14 12:36:35;;;;;;;18.20;10.98;;;5.90;99.90;;;;;;7332699;32;20207;-55
2023/12/14 12:40:41;;;;;;;18.48;10.95;;;5.80;99.90;;;;;;7332507;32;20589;-56
2023/12/14 12:44:43;;;;;;;17.55;11.12;;;5.90;99.90;;;;;;7329090;32;20237;-57
2023/12/14 12:48:46;;;;;;;17.42;10.25;;;5.70;99.90;;;;;;7323578;32;20245;-56
2023/12/14 12:52:49;;;;;;;14.95;9.52;;;5.60;99.90;;;;;;7332207;32;20645;-56
2023/12/14 12:56:51;;;;;;;15.85;9.10;;;5.60;99.90;;;;;;7338404;32;20194;-58
2023/12/14 13:00:53;;;;;;;12.52;8.23;;;5.50;99.90;;;;;;7329207;32;20540;-56
2023/12/14 13:04:54;;;;;;;12.60;7.80;;;5.60;99.90;;;;;;7336549;32;20171;-56
2023/12/14 13:08:56;;;;;;;13.35;8.07;;;5.60;99.90;;;;;;7334381;32;20103;-56
2023/12/14 13:12:58;;;;;;;11.85;7.62;;;5.60;99.90;;;;;;7336793;32;20940;-56
2023/12/14 13:17:00;;;;;;;12.98;7.45;;;5.60;99.90;;;;;;7339071;32;20220;-56
2023/12/14 13:21:02;;;;;;;12.70;7.70;;;5.60;99.90;;;;;;7335105;32;20223;-59
2023/12/14 13:25:05;;;;;;;12.93;7.62;;;5.60;99.90;;;;;;7340471;32;20156;-56
2023/12/14 13:29:06;;;;;;;12.35;7.47;;;5.60;99.90;;;;;;7342323;32;20140;-53
2023/12/14 13:33:11;;;;;;;13.65;7.05;;;5.60;99.90;;;;;;7334084;32;20182;-56
2023/12/14 13:37:13;;;;;;;12.18;6.82;;;5.60;99.90;;;;;;7336522;32;20182;-57
2023/12/14 13:41:15;;;;;;;9.43;6.28;;;5.40;99.90;;;;;;7336044;32;20226;-55
2023/12/14 13:45:17;;;;;;;9.98;6.50;;;5.50;99.90;;;;;;7334186;32;20178;-55
2023/12/14 13:49:18;;;;;;;9.13;5.65;;;5.50;99.90;;;;;;7333451;32;20209;-55
2023/12/14 13:53:21;;;;;;;11.82;6.22;;;5.40;99.90;;;;;;7335550;32;20275;-56
2023/12/14 13:57:23;;;;;;;10.57;6.57;;;5.40;99.90;;;;;;7340845;32;20576;-57
2023/12/14 14:01:25;;;;;;;11.77;6.20;;;5.40;99.90;;;;;;7351679;32;20111;-57
2023/12/14 14:05:27;;;;;;;10.43;6.20;;;5.40;99.90;;;;;;7349013;32;20504;-56
2023/12/14 14:09:29;;;;;;;10.45;6.12;;;5.40;99.90;;;;;;7347302;32;20886;-56
2023/12/14 14:13:32;;;;;;;8.98;5.90;;;5.40;99.90;;;;;;7346423;32;20186;-57
2023/12/14 14:17:34;;;;;;;10.48;5.82;;;5.40;99.90;;;;;;7351650;32;20122;-57
2023/12/14 14:21:36;;;;;;;10.02;6.00;;;5.40;99.90;;;;;;7346078;32;20476;-56
2023/12/14 14:25:38;;;;;;;8.88;5.43;;;5.40;99.90;;;;;;7347665;32;20177;-57
2023/12/14 14:29:40;;;;;;;8.32;5.28;;;5.30;99.90;;;;;;7334595;32;20326;-56
2023/12/14 14:33:42;;;;;;;10.27;5.37;;;5.30;99.90;;;;;;7347901;32;20112;-56
2023/12/14 14:37:45;;;;;;;8.07;4.95;;;5.20;99.90;;;;;;7342653;32;20135;-56
2023/12/14 14:41:47;;;;;;;12.00;5.35;;;5.30;99.90;;;;;;7343346;32;20119;-55
2023/12/14 14:45:49;;;;;;;9.95;5.37;;;5.30;99.90;;;;;;7342357;32;20118;-56
2023/12/14 14:49:51;;;;;;;9.05;5.18;;;5.20;99.90;;;;;;7346188;32;20128;-58
2023/12/14 14:53:53;;;;;;;11.38;5.97;;;5.30;99.90;;;;;;7344228;32;20110;-57
2023/12/14 14:57:55;;;;;;;9.77;5.70;;;5.20;99.90;;;;;;7342468;32;20103;-58
2023/12/14 15:01:59;;;;;;;11.55;6.72;;;5.20;99.90;;;;;;7350497;32;20194;-57
2023/12/14 15:06:01;;;;;;;10.93;6.25;;;5.20;99.90;;;;;;7350251;32;20599;-58
2023/12/14 15:10:03;;;;;;;9.27;5.85;;;5.20;99.90;;;;;;7347452;32;20115;-57
2023/12/14 15:14:05;;;;;;;12.43;6.82;;;5.20;99.90;;;;;;7341994;32;20209;-58
2023/12/14 15:18:06;;;;;;;11.93;6.75;;;5.20;99.90;;;;;;7340621;32;20096;-58
2023/12/14 15:22:08;;;;;;;13.40;7.30;;;5.20;99.90;;;;;;7343239;32;20125;-58
2023/12/14 15:26:11;;;;;;;12.45;7.03;;;5.10;99.90;;;;;;7349109;32;20235;-58
2023/12/14 15:30:13;;;;;;;10.02;6.40;;;5.10;99.90;;;;;;7345592;32;20240;-57
2023/12/14 15:34:15;;;;;;;15.27;7.62;;;5.20;99.90;;;;;;7345935;32;20697;-55
2023/12/14 15:38:17;;;;;;;11.55;7.20;;;5.10;99.90;;;;;;7343627;32;20095;-55
2023/12/14 15:42:19;;;;;;;12.07;7.50;;;5.20;99.90;;;;;;7341485;32;20115;-57
2023/12/14 15:46:21;;;;;;;12.02;7.53;;;5.20;99.90;;;;;;7348595;32;20266;-54
2023/12/14 15:50:23;;;;;;;13.05;7.93;;;5.20;99.90;;;;;;7345984;32;20524;-54
2023/12/14 15:54:25;;;;;;;11.77;7.75;;;5.10;99.90;;;;;;7344476;32;20206;-54
2023/12/14 15:58:27;;;;;;;12.00;7.87;;;5.10;99.90;;;;;;7331195;32;20190;-55
2023/12/14 16:02:29;;;;;;;12.50;7.70;;;5.10;99.90;;;;;;7336133;32;20166;-55
2023/12/14 16:06:31;;;;;;;12.82;7.87;;;5.10;99.90;;;;;;7332257;32;20167;-58
2023/12/14 16:10:34;;;;;;;12.90;8.07;;;5.10;99.90;;;;;;7334414;32;20265;-57
2023/12/14 16:14:35;;;;;;;14.70;8.35;;;5.10;99.90;;;;;;7338329;32;20225;-55
2023/12/14 16:18:37;;;;;;;11.95;7.03;;;5.10;99.90;;;;;;7337150;32;20186;-55
2023/12/14 16:22:39;;;;;;;11.75;7.57;;;5.20;99.90;;;;;;7329428;32;21257;-57
2023/12/14 16:26:41;;;;;;;13.07;7.55;;;5.10;99.90;;;;;;7340547;32;20202;-55
2023/12/14 16:30:44;;;;;;;12.63;8.68;;;5.20;99.90;;;;;;7334565;32;20245;-55
2023/12/14 16:34:45;;;;;;;14.52;8.73;;;5.20;99.90;;;;;;7335651;32;20161;-55
2023/12/14 16:38:47;;;;;;;12.88;7.68;;;5.20;99.90;;;;;;7339753;32;20153;-55
2023/12/14 16:42:49;;;;;;;13.05;8.35;;;5.20;99.90;;;;;;7338466;32;20186;-55
2023/12/14 16:46:51;;;;;;;14.07;8.23;;;5.20;99.90;;;;;;7335732;32;20111;-55
2023/12/14 16:50:53;;;;;;;14.63;8.73;;;5.20;99.90;;;;;;7334220;32;20751;-55
2023/12/14 16:54:55;;;;;;;16.00;9.07;;;5.20;99.90;;;;;;7336507;32;20592;-55
2023/12/14 16:58:57;;;;;;;14.90;8.82;;;5.20;99.90;;;;;;7338174;32;20203;-55
2023/12/14 17:02:59;;;;;;;14.75;9.15;;;5.20;99.90;;;;;;7328899;32;20336;-55
2023/12/14 17:07:01;;;;;;;15.57;8.98;;;5.20;99.90;;;;;;7334316;32;20170;-55
2023/12/14 17:11:05;;;;;;;13.65;8.75;;;5.20;99.90;;;;;;7334356;32;20220;-54
2023/12/14 17:15:11;;;;;;;15.82;9.80;;;5.10;99.90;;;;;;7336208;32;20202;-55
2023/12/14 17:19:13;;;;;;;21.77;9.95;;;5.20;99.90;;;;;;7333165;32;20517;-55
2023/12/14 17:23:14;;;;;;;17.87;10.07;;;5.20;99.90;;;;;;7338452;32;20268;-55
2023/12/14 17:27:16;;;;;;;16.05;10.07;;;5.10;99.90;;;;;;7340309;32;20178;-54
2023/12/14 17:31:19;;;;;;;17.23;11.02;;;5.10;99.90;;;;;;7335314;32;20170;-55
2023/12/14 17:35:21;;;;;;;17.58;10.88;;;5.10;99.90;;;;;;7338511;32;20194;-55
2023/12/14 17:39:23;;;;;;;18.35;11.43;;;5.10;99.90;;;;;;7338156;32;20232;-55
2023/12/14 17:43:25;;;;;;;17.48;10.85;;;5.10;99.90;;;;;;7336916;32;20209;-55
2023/12/14 17:47:27;;;;;;;16.83;10.63;;;5.00;99.90;;;;;;7340602;32;20279;-55
2023/12/14 17:51:29;;;;;;;18.55;11.35;;;4.90;99.90;;;;;;7339763;32;20353;-54
2023/12/14 17:55:30;;;;;;;23.58;12.55;;;4.80;99.90;;;;;;7336768;32;20556;-55
2023/12/14 17:59:32;;;;;;;19.30;11.73;;;4.70;99.90;;;;;;7336962;32;20185;-54
2023/12/14 18:03:35;;;;;;;19.12;11.73;;;4.40;99.90;;;;;;7336825;32;20111;-54
2023/12/14 18:07:37;;;;;;;19.10;11.52;;;4.30;99.90;;;;;;7346070;32;20562;-56
2023/12/14 18:11:39;;;;;;;20.17;11.63;;;4.10;99.90;;;;;;7345314;32;20240;-55
2023/12/14 18:15:41;;;;;;;18.85;11.23;;;3.90;99.90;;;;;;7345749;32;20904;-55
2023/12/14 18:19:43;;;;;;;17.35;10.75;;;3.90;99.90;;;;;;7336495;32;20107;-55
2023/12/14 18:23:44;;;;;;;16.90;10.82;;;3.70;99.90;;;;;;7345141;32;20122;-56
2023/12/14 18:27:46;;;;;;;16.42;10.57;;;3.60;99.90;;;;;;7351094;32;20151;-56
2023/12/14 18:31:48;;;;;;;15.63;10.30;;;3.50;99.90;;;;;;7340390;32;20506;-57
2023/12/14 18:35:50;;;;;;;17.73;10.60;;;3.40;99.90;;;;;;7341274;32;21877;-57
2023/12/14 18:39:52;;;;;;;16.70;10.05;;;3.50;99.90;;;;;;7348102;32;20559;-57
2023/12/14 18:43:54;;;;;;;18.92;10.77;;;3.40;99.90;;;;;;7345953;32;20437;-56
2023/12/14 18:47:56;;;;;;;17.75;10.88;;;3.40;99.90;;;;;;7341944;32;20182;-56
2023/12/14 18:51:59;;;;;;;17.12;10.88;;;3.20;99.90;;;;;;7345816;32;20123;-55
2023/12/14 18:56:02;;;;;;;19.27;11.90;;;3.20;99.90;;;;;;7343491;32;20206;-55
2023/12/14 19:00:04;;;;;;;19.52;10.98;;;3.20;99.90;;;;;;7336848;32;20111;-56
2023/12/14 19:04:06;;;;;;;17.85;10.63;;;3.10;99.90;;;;;;7327713;32;20259;-55
2023/12/14 19:08:08;;;;;;;21.62;11.40;;;3.00;99.90;;;;;;7339850;32;20106;-56
2023/12/14 19:12:10;;;;;;;25.08;13.05;;;3.00;99.90;;;;;;7344660;32;20088;-56
2023/12/14 19:16:12;;;;;;;18.92;11.82;;;2.90;99.90;;;;;;7353030;32;20131;-56
2023/12/14 19:20:14;;;;;;;18.35;11.40;;;2.90;99.90;;;;;;7341111;32;20125;-56
2023/12/14 19:24:17;;;;;;;18.85;11.30;;;2.90;99.90;;;;;;7351093;32;20160;-55
2023/12/14 19:28:18;;;;;;;19.83;11.00;;;2.80;99.90;;;;;;7348604;32;20460;-54
2023/12/14 19:32:20;;;;;;;22.48;12.10;;;2.70;99.90;;;;;;7349205;32;20100;-56
2023/12/14 19:36:22;;;;;;;20.62;11.93;;;2.80;99.90;;;;;;7343610;32;20226;-57
2023/12/14 19:40:25;;;;;;;21.17;11.85;;;2.80;99.90;;;;;;7351454;32;20189;-57
2023/12/14 19:44:27;;;;;;;22.13;12.52;;;2.80;99.90;;;;;;7347579;32;20498;-56
2023/12/14 19:48:29;;;;;;;24.55;12.75;;;2.90;99.90;;;;;;7345369;32;20216;-56
2023/12/14 19:52:31;;;;;;;28.92;16.08;;;3.00;99.90;;;;;;7336762;32;20121;-56
2023/12/14 19:56:33;;;;;;;29.45;16.05;;;3.10;99.90;;;;;;7342407;32;20217;-55
2023/12/14 20:00:35;;;;;;;27.67;15.32;;;3.20;99.90;;;;;;7342668;32;20103;-55
2023/12/14 20:04:37;;;;;;;25.45;14.23;;;3.20;99.90;;;;;;7341825;32;20179;-56
2023/12/14 20:08:39;;;;;;;24.23;14.07;;;3.40;99.90;;;;;;7340343;32;20712;-55
2023/12/14 20:12:42;;;;;;;25.77;14.82;;;3.40;99.90;;;;;;7339442;32;20510;-56
2023/12/14 20:16:47;;;;;;;24.70;14.35;;;3.50;99.90;;;;;;7337527;32;20112;-57
2023/12/14 20:20:50;;;;;;;24.02;12.77;;;3.70;99.90;;;;;;7343202;32;20130;-68
2023/12/14 20:24:52;;;;;;;21.83;13.00;;;3.70;99.90;;;;;;7341676;32;20139;-69
2023/12/14 20:28:53;;;;;;;23.77;13.48;;;3.80;99.90;;;;;;7343038;32;20136;-56
2023/12/14 20:32:55;;;;;;;24.65;12.93;;;3.90;99.90;;;;;;7341679;32;20126;-56
2023/12/14 20:36:57;;;;;;;21.92;13.62;;;3.90;99.90;;;;;;7345366;32;20324;-53
2023/12/14 20:40:59;;;;;;;25.30;13.62;;;4.00;99.90;;;;;;7329536;32;20126;-54
2023/12/14 20:45:01;;;;;;;21.95;13.70;;;3.90;99.90;;;;;;7324318;32;20205;-56